Alplaus, New York
Current Conditions -  °F | °C
As of 9:51 PM on Friday 19 Dec 2014 (Local Time) from KALB Reporting Station
Overcast Overcast  
Wind Chill: 17°   Ceiling: 2700
Heat Index: 27°   Visibility: 10mi
Dew Point: 19°   Wind: 12mph
Humidity: 72%   Direction: 330°NNW
Pressure: 30.2"   Gusts: NA
Location:  42.86°N, 73.9°W
Report Text: KALB 200251Z 33010KT 10SM FEW020 OVC027 M03/M07 A3020 RMK AO2 SLP229 T10281072 53010
Loading
Personal Weather Stations






























Interactive Weather Map New forecast layout! Learn more

10-Day Weather Forecast

Advertisements
Track Severe Weather on mobile